sensor_id;sensor_type;location;lat;lon;timestamp;temperature;humidity
15967;DHT22;15175;48.154;11.534;2022-08-19T00:01:51;19.90;99.90
15967;DHT22;15175;48.154;11.534;2022-08-19T00:04:21;19.90;99.90
15967;DHT22;15175;48.154;11.534;2022-08-19T00:06:48;19.80;99.90
15967;DHT22;15175;48.154;11.534;2022-08-19T00:09:19;19.80;99.90
15967;DHT22;15175;48.154;11.534;2022-08-19T00:11:46;19.80;99.90
15967;DHT22;15175;48.154;11.534;2022-08-19T00:14:15;19.80;99.90
15967;DHT22;15175;48.154;11.534;2022-08-19T00:16:44;19.80;99.90
15967;DHT22;15175;48.154;11.534;2022-08-19T00:19:12;19.90;99.90
15967;DHT22;15175;48.154;11.534;2022-08-19T00:21:39;19.80;99.90
15967;DHT22;15175;48.154;11.534;2022-08-19T00:24:07;19.80;99.90
15967;DHT22;15175;48.154;11.534;2022-08-19T00:26:36;19.80;99.90
15967;DHT22;15175;48.154;11.534;2022-08-19T00:29:04;19.80;99.90
15967;DHT22;15175;48.154;11.534;2022-08-19T00:31:32;19.80;99.90
15967;DHT22;15175;48.154;11.534;2022-08-19T00:33:59;19.80;99.90
15967;DHT22;15175;48.154;11.534;2022-08-19T00:36:27;19.90;99.90
15967;DHT22;15175;48.154;11.534;2022-08-19T00:38:54;19.80;99.90
15967;DHT22;15175;48.154;11.534;2022-08-19T00:41:23;19.80;99.90
15967;DHT22;15175;48.154;11.534;2022-08-19T00:43:59;19.80;99.90
15967;DHT22;15175;48.154;11.534;2022-08-19T00:46:28;19.90;99.90
15967;DHT22;15175;48.154;11.534;2022-08-19T00:48:55;19.90;99.90
15967;DHT22;15175;48.154;11.534;2022-08-19T00:51:24;19.80;99.90
15967;DHT22;15175;48.154;11.534;2022-08-19T00:53:53;19.80;99.90
15967;DHT22;15175;48.154;11.534;2022-08-19T00:56:21;19.80;99.90
15967;DHT22;15175;48.154;11.534;2022-08-19T00:58:49;19.70;99.90
15967;DHT22;15175;48.154;11.534;2022-08-19T01:01:18;19.80;99.90
15967;DHT22;15175;48.154;11.534;2022-08-19T01:03:45;19.80;99.90
15967;DHT22;15175;48.154;11.534;2022-08-19T01:06:12;19.80;99.90
15967;DHT22;15175;48.154;11.534;2022-08-19T01:08:40;19.80;99.90
15967;DHT22;15175;48.154;11.534;2022-08-19T01:11:07;19.80;99.90
15967;DHT22;15175;48.154;11.534;2022-08-19T01:13:36;19.80;99.90
15967;DHT22;15175;48.154;11.534;2022-08-19T01:16:06;19.80;99.90
15967;DHT22;15175;48.154;11.534;2022-08-19T01:18:39;19.80;99.90
15967;DHT22;15175;48.154;11.534;2022-08-19T01:21:12;19.70;99.90
15967;DHT22;15175;48.154;11.534;2022-08-19T01:23:45;19.70;99.90
15967;DHT22;15175;48.154;11.534;2022-08-19T01:26:16;19.80;99.90
15967;DHT22;15175;48.154;11.534;2022-08-19T01:28:45;19.70;99.90
15967;DHT22;15175;48.154;11.534;2022-08-19T01:31:15;19.70;99.90
15967;DHT22;15175;48.154;11.534;2022-08-19T01:33:42;19.70;99.90
15967;DHT22;15175;48.154;11.534;2022-08-19T01:36:11;19.70;99.90
15967;DHT22;15175;48.154;11.534;2022-08-19T01:38:41;19.70;99.90
15967;DHT22;15175;48.154;11.534;2022-08-19T01:41:11;19.70;99.90
15967;DHT22;15175;48.154;11.534;2022-08-19T01:43:39;19.70;99.90
15967;DHT22;15175;48.154;11.534;2022-08-19T01:46:06;19.70;99.90
15967;DHT22;15175;48.154;11.534;2022-08-19T01:48:35;19.70;99.90
15967;DHT22;15175;48.154;11.534;2022-08-19T01:51:03;19.70;99.90
15967;DHT22;15175;48.154;11.534;2022-08-19T01:53:30;19.70;99.90
15967;DHT22;15175;48.154;11.534;2022-08-19T01:55:57;19.70;99.90
15967;DHT22;15175;48.154;11.534;2022-08-19T01:58:30;19.70;99.90
15967;DHT22;15175;48.154;11.534;2022-08-19T02:00:59;19.70;99.90
15967;DHT22;15175;48.154;11.534;2022-08-19T02:03:26;19.70;99.90
15967;DHT22;15175;48.154;11.534;2022-08-19T02:05:55;19.80;99.90
15967;DHT22;15175;48.154;11.534;2022-08-19T02:08:23;19.70;99.90
15967;DHT22;15175;48.154;11.534;2022-08-19T02:10:50;19.70;99.90
15967;DHT22;15175;48.154;11.534;2022-08-19T02:13:18;19.70;99.90
15967;DHT22;15175;48.154;11.534;2022-08-19T02:15:46;19.70;99.90
15967;DHT22;15175;48.154;11.534;2022-08-19T02:18:13;19.70;99.90
15967;DHT22;15175;48.154;11.534;2022-08-19T02:20:42;19.70;99.90
15967;DHT22;15175;48.154;11.534;2022-08-19T02:23:11;19.70;99.90
15967;DHT22;15175;48.154;11.534;2022-08-19T02:25:39;19.70;99.90
15967;DHT22;15175;48.154;11.534;2022-08-19T02:28:06;19.70;99.90
15967;DHT22;15175;48.154;11.534;2022-08-19T02:30:34;19.70;99.90
15967;DHT22;15175;48.154;11.534;2022-08-19T02:33:02;19.70;99.90
15967;DHT22;15175;48.154;11.534;2022-08-19T02:35:30;19.70;99.90
15967;DHT22;15175;48.154;11.534;2022-08-19T02:37:58;19.70;99.90
15967;DHT22;15175;48.154;11.534;2022-08-19T02:40:48;19.70;99.90
15967;DHT22;15175;48.154;11.534;2022-08-19T02:43:16;19.70;99.90
15967;DHT22;15175;48.154;11.534;2022-08-19T02:45:43;19.70;99.90
15967;DHT22;15175;48.154;11.534;2022-08-19T02:48:11;19.70;99.90
15967;DHT22;15175;48.154;11.534;2022-08-19T02:50:40;19.70;99.90
15967;DHT22;15175;48.154;11.534;2022-08-19T02:53:07;19.70;99.90
15967;DHT22;15175;48.154;11.534;2022-08-19T02:55:34;19.70;99.90
15967;DHT22;15175;48.154;11.534;2022-08-19T02:58:01;19.70;99.90
15967;DHT22;15175;48.154;11.534;2022-08-19T03:00:28;19.70;99.90
15967;DHT22;15175;48.154;11.534;2022-08-19T03:02:55;19.70;99.90
15967;DHT22;15175;48.154;11.534;2022-08-19T03:05:24;19.70;99.90
15967;DHT22;15175;48.154;11.534;2022-08-19T03:07:51;19.70;99.90
15967;DHT22;15175;48.154;11.534;2022-08-19T03:10:18;19.70;99.90
15967;DHT22;15175;48.154;11.534;2022-08-19T03:12:46;19.70;99.90
15967;DHT22;15175;48.154;11.534;2022-08-19T03:15:13;19.70;99.90
15967;DHT22;15175;48.154;11.534;2022-08-19T03:17:41;19.70;99.90
15967;DHT22;15175;48.154;11.534;2022-08-19T03:20:08;19.60;99.90
15967;DHT22;15175;48.154;11.534;2022-08-19T03:22:37;19.60;99.90
15967;DHT22;15175;48.154;11.534;2022-08-19T03:25:05;19.60;99.90
15967;DHT22;15175;48.154;11.534;2022-08-19T03:27:32;19.70;99.90
15967;DHT22;15175;48.154;11.534;2022-08-19T03:29:59;19.70;99.90
15967;DHT22;15175;48.154;11.534;2022-08-19T03:32:26;19.70;99.90
15967;DHT22;15175;48.154;11.534;2022-08-19T03:34:53;19.70;99.90
15967;DHT22;15175;48.154;11.534;2022-08-19T03:37:20;19.70;99.90
15967;DHT22;15175;48.154;11.534;2022-08-19T03:39:49;19.70;99.90
15967;DHT22;15175;48.154;11.534;2022-08-19T03:42:16;19.70;99.90
15967;DHT22;15175;48.154;11.534;2022-08-19T03:44:44;19.70;99.90
15967;DHT22;15175;48.154;11.534;2022-08-19T03:47:11;19.70;99.90
15967;DHT22;15175;48.154;11.534;2022-08-19T03:49:41;19.70;99.90
15967;DHT22;15175;48.154;11.534;2022-08-19T03:52:09;19.70;99.90
15967;DHT22;15175;48.154;11.534;2022-08-19T03:54:36;19.70;99.90
15967;DHT22;15175;48.154;11.534;2022-08-19T03:57:06;19.70;99.90
15967;DHT22;15175;48.154;11.534;2022-08-19T03:59:36;19.70;99.90
15967;DHT22;15175;48.154;11.534;2022-08-19T04:02:08;19.70;99.90
15967;DHT22;15175;48.154;11.534;2022-08-19T04:04:36;19.70;99.90
15967;DHT22;15175;48.154;11.534;2022-08-19T04:07:04;19.70;99.90
15967;DHT22;15175;48.154;11.534;2022-08-19T04:09:32;19.70;99.90
15967;DHT22;15175;48.154;11.534;2022-08-19T04:11:59;19.70;99.90
15967;DHT22;15175;48.154;11.534;2022-08-19T04:14:29;19.70;99.90
15967;DHT22;15175;48.154;11.534;2022-08-19T04:16:58;19.70;99.90
15967;DHT22;15175;48.154;11.534;2022-08-19T04:19:26;19.70;99.90
15967;DHT22;15175;48.154;11.534;2022-08-19T04:21:54;19.70;99.90
15967;DHT22;15175;48.154;11.534;2022-08-19T04:24:22;19.70;99.90
15967;DHT22;15175;48.154;11.534;2022-08-19T04:26:50;19.70;99.90
15967;DHT22;15175;48.154;11.534;2022-08-19T04:29:19;19.70;99.90
15967;DHT22;15175;48.154;11.534;2022-08-19T04:31:48;19.70;99.90
15967;DHT22;15175;48.154;11.534;2022-08-19T04:34:17;19.70;99.90
15967;DHT22;15175;48.154;11.534;2022-08-19T04:36:48;19.70;99.90
15967;DHT22;15175;48.154;11.534;2022-08-19T04:39:18;19.70;99.90
15967;DHT22;15175;48.154;11.534;2022-08-19T04:41:46;19.60;99.90
15967;DHT22;15175;48.154;11.534;2022-08-19T04:44:32;19.70;99.90
15967;DHT22;15175;48.154;11.534;2022-08-19T04:47:01;19.70;99.90
15967;DHT22;15175;48.154;11.534;2022-08-19T04:49:31;19.70;99.90
15967;DHT22;15175;48.154;11.534;2022-08-19T04:51:58;19.70;99.90
15967;DHT22;15175;48.154;11.534;2022-08-19T04:54:26;19.70;99.90
15967;DHT22;15175;48.154;11.534;2022-08-19T04:56:54;19.70;99.90
15967;DHT22;15175;48.154;11.534;2022-08-19T04:59:21;19.70;99.90
15967;DHT22;15175;48.154;11.534;2022-08-19T05:01:48;19.70;99.90
15967;DHT22;15175;48.154;11.534;2022-08-19T05:04:19;19.70;99.90
15967;DHT22;15175;48.154;11.534;2022-08-19T05:06:47;19.70;99.90
15967;DHT22;15175;48.154;11.534;2022-08-19T05:09:16;19.70;99.90
15967;DHT22;15175;48.154;11.534;2022-08-19T05:11:44;19.70;99.90
15967;DHT22;15175;48.154;11.534;2022-08-19T05:14:11;19.70;99.90
15967;DHT22;15175;48.154;11.534;2022-08-19T05:16:39;19.70;99.90
15967;DHT22;15175;48.154;11.534;2022-08-19T05:19:07;19.80;99.90
15967;DHT22;15175;48.154;11.534;2022-08-19T05:21:53;19.80;99.90
15967;DHT22;15175;48.154;11.534;2022-08-19T05:24:38;19.70;99.90
15967;DHT22;15175;48.154;11.534;2022-08-19T05:27:05;19.80;99.90
15967;DHT22;15175;48.154;11.534;2022-08-19T05:29:33;19.70;99.90
15967;DHT22;15175;48.154;11.534;2022-08-19T05:32:02;19.70;99.90
15967;DHT22;15175;48.154;11.534;2022-08-19T05:34:31;19.70;99.90
15967;DHT22;15175;48.154;11.534;2022-08-19T05:37:02;19.70;99.90
15967;DHT22;15175;48.154;11.534;2022-08-19T05:39:32;19.70;99.90
15967;DHT22;15175;48.154;11.534;2022-08-19T05:42:02;19.70;99.90
15967;DHT22;15175;48.154;11.534;2022-08-19T05:44:31;19.70;99.90
15967;DHT22;15175;48.154;11.534;2022-08-19T05:46:59;19.70;99.90
15967;DHT22;15175;48.154;11.534;2022-08-19T05:49:28;19.80;99.90
15967;DHT22;15175;48.154;11.534;2022-08-19T05:51:56;19.80;99.90
15967;DHT22;15175;48.154;11.534;2022-08-19T05:54:26;19.70;99.90
15967;DHT22;15175;48.154;11.534;2022-08-19T05:56:54;19.70;99.90
15967;DHT22;15175;48.154;11.534;2022-08-19T05:59:21;19.70;99.90
15967;DHT22;15175;48.154;11.534;2022-08-19T06:01:50;19.70;99.90
15967;DHT22;15175;48.154;11.534;2022-08-19T06:04:18;19.80;99.90
15967;DHT22;15175;48.154;11.534;2022-08-19T06:06:47;19.80;99.90
15967;DHT22;15175;48.154;11.534;2022-08-19T06:09:14;19.80;99.90
15967;DHT22;15175;48.154;11.534;2022-08-19T06:11:45;19.80;99.90
15967;DHT22;15175;48.154;11.534;2022-08-19T06:14:14;19.80;99.90
15967;DHT22;15175;48.154;11.534;2022-08-19T06:16:43;19.80;99.90
15967;DHT22;15175;48.154;11.534;2022-08-19T06:19:12;19.90;99.90
15967;DHT22;15175;48.154;11.534;2022-08-19T06:21:42;19.80;99.90
15967;DHT22;15175;48.154;11.534;2022-08-19T06:24:17;19.90;99.90
15967;DHT22;15175;48.154;11.534;2022-08-19T06:26:47;19.90;99.90
15967;DHT22;15175;48.154;11.534;2022-08-19T06:29:16;19.90;99.90
15967;DHT22;15175;48.154;11.534;2022-08-19T06:31:49;19.90;99.90
15967;DHT22;15175;48.154;11.534;2022-08-19T06:34:17;19.90;99.90
15967;DHT22;15175;48.154;11.534;2022-08-19T06:36:49;19.90;99.90
15967;DHT22;15175;48.154;11.534;2022-08-19T06:39:18;19.90;99.90
15967;DHT22;15175;48.154;11.534;2022-08-19T06:41:48;19.90;99.90
15967;DHT22;15175;48.154;11.534;2022-08-19T06:44:17;19.90;99.90
15967;DHT22;15175;48.154;11.534;2022-08-19T06:46:45;19.90;99.90
15967;DHT22;15175;48.154;11.534;2022-08-19T06:49:13;19.90;99.90
15967;DHT22;15175;48.154;11.534;2022-08-19T06:51:41;19.90;99.90
15967;DHT22;15175;48.154;11.534;2022-08-19T06:54:09;19.90;99.90
15967;DHT22;15175;48.154;11.534;2022-08-19T06:56:37;19.90;99.90
15967;DHT22;15175;48.154;11.534;2022-08-19T06:59:09;19.90;99.90
15967;DHT22;15175;48.154;11.534;2022-08-19T07:01:39;19.90;99.90
15967;DHT22;15175;48.154;11.534;2022-08-19T07:04:08;19.90;99.90
15967;DHT22;15175;48.154;11.534;2022-08-19T07:06:36;19.90;99.90
15967;DHT22;15175;48.154;11.534;2022-08-19T07:09:07;20.00;99.90
15967;DHT22;15175;48.154;11.534;2022-08-19T07:11:34;20.00;99.90
15967;DHT22;15175;48.154;11.534;2022-08-19T07:14:02;20.00;99.90
15967;DHT22;15175;48.154;11.534;2022-08-19T07:16:31;20.00;99.90
15967;DHT22;15175;48.154;11.534;2022-08-19T07:18:58;20.00;99.90
15967;DHT22;15175;48.154;11.534;2022-08-19T07:21:27;20.10;99.90
15967;DHT22;15175;48.154;11.534;2022-08-19T07:23:55;20.10;99.90
15967;DHT22;15175;48.154;11.534;2022-08-19T07:26:25;20.10;99.90
15967;DHT22;15175;48.154;11.534;2022-08-19T07:28:53;20.10;99.90
15967;DHT22;15175;48.154;11.534;2022-08-19T07:31:23;20.10;99.90
15967;DHT22;15175;48.154;11.534;2022-08-19T07:33:54;20.20;99.90
15967;DHT22;15175;48.154;11.534;2022-08-19T07:36:24;20.20;99.90
15967;DHT22;15175;48.154;11.534;2022-08-19T07:38:51;20.20;99.90
15967;DHT22;15175;48.154;11.534;2022-08-19T07:41:23;20.30;99.90
15967;DHT22;15175;48.154;11.534;2022-08-19T07:43:51;20.30;99.90
15967;DHT22;15175;48.154;11.534;2022-08-19T07:46:19;20.40;99.90
15967;DHT22;15175;48.154;11.534;2022-08-19T07:48:48;20.40;99.90
15967;DHT22;15175;48.154;11.534;2022-08-19T07:51:19;20.50;99.90
15967;DHT22;15175;48.154;11.534;2022-08-19T07:53:48;20.50;99.90
15967;DHT22;15175;48.154;11.534;2022-08-19T07:56:16;20.50;99.90
15967;DHT22;15175;48.154;11.534;2022-08-19T07:58:45;20.40;99.90
15967;DHT22;15175;48.154;11.534;2022-08-19T08:01:15;20.40;99.90
15967;DHT22;15175;48.154;11.534;2022-08-19T08:03:43;20.40;99.90
15967;DHT22;15175;48.154;11.534;2022-08-19T08:06:30;20.40;99.90
15967;DHT22;15175;48.154;11.534;2022-08-19T08:09:15;20.40;99.90
15967;DHT22;15175;48.154;11.534;2022-08-19T08:11:49;20.40;99.90
15967;DHT22;15175;48.154;11.534;2022-08-19T08:14:18;20.40;99.90
15967;DHT22;15175;48.154;11.534;2022-08-19T08:16:47;20.40;99.90
15967;DHT22;15175;48.154;11.534;2022-08-19T08:19:17;20.40;99.90
15967;DHT22;15175;48.154;11.534;2022-08-19T08:21:46;20.40;99.90
15967;DHT22;15175;48.154;11.534;2022-08-19T08:24:14;20.30;99.90
15967;DHT22;15175;48.154;11.534;2022-08-19T08:26:42;20.30;99.90
15967;DHT22;15175;48.154;11.534;2022-08-19T08:29:10;20.30;99.90
15967;DHT22;15175;48.154;11.534;2022-08-19T08:31:39;20.30;99.90
15967;DHT22;15175;48.154;11.534;2022-08-19T08:34:07;20.30;99.90
15967;DHT22;15175;48.154;11.534;2022-08-19T08:36:36;20.40;99.90
15967;DHT22;15175;48.154;11.534;2022-08-19T08:39:08;20.40;99.90
15967;DHT22;15175;48.154;11.534;2022-08-19T08:41:40;20.40;99.90
15967;DHT22;15175;48.154;11.534;2022-08-19T08:44:14;20.40;99.90
15967;DHT22;15175;48.154;11.534;2022-08-19T08:46:48;20.40;99.90
15967;DHT22;15175;48.154;11.534;2022-08-19T08:49:24;20.40;99.90
15967;DHT22;15175;48.154;11.534;2022-08-19T08:51:59;20.40;99.90
15967;DHT22;15175;48.154;11.534;2022-08-19T08:54:34;20.40;99.90
15967;DHT22;15175;48.154;11.534;2022-08-19T08:57:06;20.40;99.90
15967;DHT22;15175;48.154;11.534;2022-08-19T08:59:38;20.40;99.90
15967;DHT22;15175;48.154;11.534;2022-08-19T09:02:07;20.40;99.90
15967;DHT22;15175;48.154;11.534;2022-08-19T09:04:35;20.40;99.90
15967;DHT22;15175;48.154;11.534;2022-08-19T09:07:22;20.40;99.90
15967;DHT22;15175;48.154;11.534;2022-08-19T09:10:03;20.40;99.90
15967;DHT22;15175;48.154;11.534;2022-08-19T09:12:40;20.40;99.90
15967;DHT22;15175;48.154;11.534;2022-08-19T09:15:11;20.40;99.90
15967;DHT22;15175;48.154;11.534;2022-08-19T09:17:39;20.40;99.90
15967;DHT22;15175;48.154;11.534;2022-08-19T09:20:14;20.40;99.90
15967;DHT22;15175;48.154;11.534;2022-08-19T09:22:42;20.40;99.90
15967;DHT22;15175;48.154;11.534;2022-08-19T09:25:14;20.30;99.90
15967;DHT22;15175;48.154;11.534;2022-08-19T09:27:42;20.30;99.90
15967;DHT22;15175;48.154;11.534;2022-08-19T09:30:13;20.30;99.90
15967;DHT22;15175;48.154;11.534;2022-08-19T09:32:41;20.30;99.90
15967;DHT22;15175;48.154;11.534;2022-08-19T09:35:09;20.30;99.90
15967;DHT22;15175;48.154;11.534;2022-08-19T09:37:36;20.40;99.90
15967;DHT22;15175;48.154;11.534;2022-08-19T09:40:04;20.40;99.90
15967;DHT22;15175;48.154;11.534;2022-08-19T09:42:34;20.40;99.90
15967;DHT22;15175;48.154;11.534;2022-08-19T09:45:01;20.40;99.90
15967;DHT22;15175;48.154;11.534;2022-08-19T09:47:28;20.40;99.90
15967;DHT22;15175;48.154;11.534;2022-08-19T09:49:56;20.40;99.90
15967;DHT22;15175;48.154;11.534;2022-08-19T09:52:23;20.40;99.90
15967;DHT22;15175;48.154;11.534;2022-08-19T09:54:52;20.40;99.90
15967;DHT22;15175;48.154;11.534;2022-08-19T09:57:20;20.50;99.90
15967;DHT22;15175;48.154;11.534;2022-08-19T09:59:49;20.50;99.90
15967;DHT22;15175;48.154;11.534;2022-08-19T10:02:16;20.50;99.90
15967;DHT22;15175;48.154;11.534;2022-08-19T10:04:43;20.50;99.90
15967;DHT22;15175;48.154;11.534;2022-08-19T10:07:29;20.60;99.90
15967;DHT22;15175;48.154;11.534;2022-08-19T10:09:57;20.50;99.90
15967;DHT22;15175;48.154;11.534;2022-08-19T10:12:24;20.50;99.90
15967;DHT22;15175;48.154;11.534;2022-08-19T10:14:52;20.50;99.90
15967;DHT22;15175;48.154;11.534;2022-08-19T10:17:20;20.60;99.90
15967;DHT22;15175;48.154;11.534;2022-08-19T10:19:47;20.60;99.90
15967;DHT22;15175;48.154;11.534;2022-08-19T10:22:14;20.70;99.90
15967;DHT22;15175;48.154;11.534;2022-08-19T10:24:41;20.70;99.90
15967;DHT22;15175;48.154;11.534;2022-08-19T10:27:08;20.70;99.90
15967;DHT22;15175;48.154;11.534;2022-08-19T10:29:36;20.70;99.90
15967;DHT22;15175;48.154;11.534;2022-08-19T10:32:07;20.80;99.90
15967;DHT22;15175;48.154;11.534;2022-08-19T10:34:36;21.00;99.90
15967;DHT22;15175;48.154;11.534;2022-08-19T10:37:05;21.10;99.90
15967;DHT22;15175;48.154;11.534;2022-08-19T10:39:34;21.40;99.90
15967;DHT22;15175;48.154;11.534;2022-08-19T10:42:04;21.60;99.90
15967;DHT22;15175;48.154;11.534;2022-08-19T10:44:32;21.90;99.90
15967;DHT22;15175;48.154;11.534;2022-08-19T10:47:01;22.10;99.90
15967;DHT22;15175;48.154;11.534;2022-08-19T10:49:30;22.30;99.90
15967;DHT22;15175;48.154;11.534;2022-08-19T10:51:58;22.40;99.90
15967;DHT22;15175;48.154;11.534;2022-08-19T10:54:42;22.50;99.90
15967;DHT22;15175;48.154;11.534;2022-08-19T10:57:30;22.50;99.90
15967;DHT22;15175;48.154;11.534;2022-08-19T10:59:57;22.60;99.90
15967;DHT22;15175;48.154;11.534;2022-08-19T11:02:24;22.60;99.90
15967;DHT22;15175;48.154;11.534;2022-08-19T11:04:53;22.70;99.90
15967;DHT22;15175;48.154;11.534;2022-08-19T11:07:20;22.70;99.90
15967;DHT22;15175;48.154;11.534;2022-08-19T11:09:47;22.70;99.90
15967;DHT22;15175;48.154;11.534;2022-08-19T11:12:15;22.70;99.90
15967;DHT22;15175;48.154;11.534;2022-08-19T11:14:42;22.60;99.90
15967;DHT22;15175;48.154;11.534;2022-08-19T11:17:09;22.60;99.90
15967;DHT22;15175;48.154;11.534;2022-08-19T11:19:39;22.50;99.90
15967;DHT22;15175;48.154;11.534;2022-08-19T11:22:09;22.50;99.90
15967;DHT22;15175;48.154;11.534;2022-08-19T11:24:36;22.50;99.90
15967;DHT22;15175;48.154;11.534;2022-08-19T11:27:07;22.40;99.90
15967;DHT22;15175;48.154;11.534;2022-08-19T11:29:37;22.30;99.90
15967;DHT22;15175;48.154;11.534;2022-08-19T11:32:06;22.30;99.90
15967;DHT22;15175;48.154;11.534;2022-08-19T11:34:35;22.20;99.90
15967;DHT22;15175;48.154;11.534;2022-08-19T11:37:03;22.20;99.90
15967;DHT22;15175;48.154;11.534;2022-08-19T11:39:34;22.20;99.90
15967;DHT22;15175;48.154;11.534;2022-08-19T11:42:04;22.30;99.90
15967;DHT22;15175;48.154;11.534;2022-08-19T11:44:51;22.40;99.90
15967;DHT22;15175;48.154;11.534;2022-08-19T11:47:19;22.40;99.90
15967;DHT22;15175;48.154;11.534;2022-08-19T11:49:47;22.50;99.90
15967;DHT22;15175;48.154;11.534;2022-08-19T11:52:14;22.60;99.90
15967;DHT22;15175;48.154;11.534;2022-08-19T11:54:42;22.70;99.90
15967;DHT22;15175;48.154;11.534;2022-08-19T11:57:10;22.80;99.90
15967;DHT22;15175;48.154;11.534;2022-08-19T11:59:37;22.80;99.90
15967;DHT22;15175;48.154;11.534;2022-08-19T12:02:04;22.70;99.90
15967;DHT22;15175;48.154;11.534;2022-08-19T12:04:31;22.70;99.90
15967;DHT22;15175;48.154;11.534;2022-08-19T12:06:58;22.70;99.90
15967;DHT22;15175;48.154;11.534;2022-08-19T12:09:25;22.70;99.90
15967;DHT22;15175;48.154;11.534;2022-08-19T12:11:54;22.60;99.90
15967;DHT22;15175;48.154;11.534;2022-08-19T12:14:21;22.50;99.90
15967;DHT22;15175;48.154;11.534;2022-08-19T12:16:49;22.50;99.90
15967;DHT22;15175;48.154;11.534;2022-08-19T12:19:16;22.50;99.90
15967;DHT22;15175;48.154;11.534;2022-08-19T12:21:44;22.40;99.90
15967;DHT22;15175;48.154;11.534;2022-08-19T12:24:11;22.40;99.90
15967;DHT22;15175;48.154;11.534;2022-08-19T12:26:38;22.30;99.90
15967;DHT22;15175;48.154;11.534;2022-08-19T12:29:07;22.30;99.90
15967;DHT22;15175;48.154;11.534;2022-08-19T12:31:34;22.30;99.90
15967;DHT22;15175;48.154;11.534;2022-08-19T12:34:02;22.30;99.90
15967;DHT22;15175;48.154;11.534;2022-08-19T12:36:29;22.30;99.90
15967;DHT22;15175;48.154;11.534;2022-08-19T12:38:58;22.40;99.90
15967;DHT22;15175;48.154;11.534;2022-08-19T12:41:25;22.40;99.90
15967;DHT22;15175;48.154;11.534;2022-08-19T12:43:52;22.50;99.90
15967;DHT22;15175;48.154;11.534;2022-08-19T12:46:21;22.40;99.90
15967;DHT22;15175;48.154;11.534;2022-08-19T12:48:48;22.50;99.90
15967;DHT22;15175;48.154;11.534;2022-08-19T12:51:17;22.50;99.90
15967;DHT22;15175;48.154;11.534;2022-08-19T12:53:45;22.60;99.90
15967;DHT22;15175;48.154;11.534;2022-08-19T12:56:13;22.60;99.90
15967;DHT22;15175;48.154;11.534;2022-08-19T12:58:41;22.60;99.90
15967;DHT22;15175;48.154;11.534;2022-08-19T13:01:11;22.70;99.90
15967;DHT22;15175;48.154;11.534;2022-08-19T13:03:40;22.70;99.90
15967;DHT22;15175;48.154;11.534;2022-08-19T13:06:07;22.80;99.90
15967;DHT22;15175;48.154;11.534;2022-08-19T13:08:35;22.90;99.90
15967;DHT22;15175;48.154;11.534;2022-08-19T13:11:10;23.00;99.90
15967;DHT22;15175;48.154;11.534;2022-08-19T13:13:39;23.10;99.90
15967;DHT22;15175;48.154;11.534;2022-08-19T13:16:07;23.20;99.90
15967;DHT22;15175;48.154;11.534;2022-08-19T13:18:35;23.30;99.90
15967;DHT22;15175;48.154;11.534;2022-08-19T13:21:05;23.40;99.90
15967;DHT22;15175;48.154;11.534;2022-08-19T13:23:34;23.50;99.90
15967;DHT22;15175;48.154;11.534;2022-08-19T13:26:05;23.60;99.90
15967;DHT22;15175;48.154;11.534;2022-08-19T13:28:33;23.60;99.90
15967;DHT22;15175;48.154;11.534;2022-08-19T13:31:15;23.70;99.90
15967;DHT22;15175;48.154;11.534;2022-08-19T13:34:00;23.70;99.90
15967;DHT22;15175;48.154;11.534;2022-08-19T13:36:29;23.70;99.90
15967;DHT22;15175;48.154;11.534;2022-08-19T13:38:56;23.80;99.90
15967;DHT22;15175;48.154;11.534;2022-08-19T13:41:24;23.80;99.90
15967;DHT22;15175;48.154;11.534;2022-08-19T13:43:52;23.80;99.90
15967;DHT22;15175;48.154;11.534;2022-08-19T13:46:19;23.80;99.90
15967;DHT22;15175;48.154;11.534;2022-08-19T13:48:47;23.80;99.90
15967;DHT22;15175;48.154;11.534;2022-08-19T13:51:16;23.80;99.90
15967;DHT22;15175;48.154;11.534;2022-08-19T13:53:45;23.80;99.90
15967;DHT22;15175;48.154;11.534;2022-08-19T13:56:15;23.80;99.90
15967;DHT22;15175;48.154;11.534;2022-08-19T13:58:42;23.80;99.90
15967;DHT22;15175;48.154;11.534;2022-08-19T14:01:10;23.80;99.90
15967;DHT22;15175;48.154;11.534;2022-08-19T14:03:38;23.60;99.90
15967;DHT22;15175;48.154;11.534;2022-08-19T14:06:06;23.50;99.90
15967;DHT22;15175;48.154;11.534;2022-08-19T14:08:33;23.50;99.90
15967;DHT22;15175;48.154;11.534;2022-08-19T14:11:10;23.50;99.90
15967;DHT22;15175;48.154;11.534;2022-08-19T14:13:37;23.50;99.90
15967;DHT22;15175;48.154;11.534;2022-08-19T14:16:07;23.50;99.90
15967;DHT22;15175;48.154;11.534;2022-08-19T14:18:35;23.50;99.90
15967;DHT22;15175;48.154;11.534;2022-08-19T14:21:03;23.50;99.90
15967;DHT22;15175;48.154;11.534;2022-08-19T14:23:30;23.40;99.90
15967;DHT22;15175;48.154;11.534;2022-08-19T14:26:03;23.40;99.90
15967;DHT22;15175;48.154;11.534;2022-08-19T14:28:32;23.40;99.90
15967;DHT22;15175;48.154;11.534;2022-08-19T14:30:59;23.40;99.90
15967;DHT22;15175;48.154;11.534;2022-08-19T14:33:26;23.30;99.90
15967;DHT22;15175;48.154;11.534;2022-08-19T14:35:54;23.30;99.90
15967;DHT22;15175;48.154;11.534;2022-08-19T14:38:21;23.20;99.90
15967;DHT22;15175;48.154;11.534;2022-08-19T14:40:48;23.20;99.90
15967;DHT22;15175;48.154;11.534;2022-08-19T14:43:18;23.20;99.90
15967;DHT22;15175;48.154;11.534;2022-08-19T14:45:46;23.20;99.90
15967;DHT22;15175;48.154;11.534;2022-08-19T14:48:14;23.20;99.90
15967;DHT22;15175;48.154;11.534;2022-08-19T14:50:41;23.20;99.90
15967;DHT22;15175;48.154;11.534;2022-08-19T14:53:08;23.20;99.90
15967;DHT22;15175;48.154;11.534;2022-08-19T14:55:36;23.10;99.90
15967;DHT22;15175;48.154;11.534;2022-08-19T14:58:03;23.10;99.90
15967;DHT22;15175;48.154;11.534;2022-08-19T15:00:30;23.00;99.90
15967;DHT22;15175;48.154;11.534;2022-08-19T15:02:59;23.00;99.90
15967;DHT22;15175;48.154;11.534;2022-08-19T15:05:26;23.00;99.90
15967;DHT22;15175;48.154;11.534;2022-08-19T15:07:53;23.00;99.90
15967;DHT22;15175;48.154;11.534;2022-08-19T15:10:23;22.90;99.90
15967;DHT22;15175;48.154;11.534;2022-08-19T15:12:50;22.90;99.90
15967;DHT22;15175;48.154;11.534;2022-08-19T15:15:18;22.90;99.90
15967;DHT22;15175;48.154;11.534;2022-08-19T15:17:47;22.80;99.90
15967;DHT22;15175;48.154;11.534;2022-08-19T15:20:18;22.80;99.90
15967;DHT22;15175;48.154;11.534;2022-08-19T15:22:47;22.80;99.90
15967;DHT22;15175;48.154;11.534;2022-08-19T15:25:18;22.70;99.90
15967;DHT22;15175;48.154;11.534;2022-08-19T15:27:46;22.60;99.90